createdAt,value
2018-01-21T00:00:36.393Z,80.53
2018-01-21T00:03:06.302Z,80.33
2018-01-21T00:05:36.661Z,79.95
2018-01-21T00:08:06.747Z,79.82
2018-01-21T00:10:37.209Z,79.87
2018-01-21T00:13:06.758Z,79.78
2018-01-21T00:15:36.902Z,79.58
2018-01-21T00:18:06.197Z,79.68
2018-01-21T00:20:35.713Z,79.85
2018-01-21T00:23:05.356Z,79.35
2018-01-21T00:25:34.946Z,79.76
2018-01-21T00:28:05.464Z,79.51
2018-01-21T00:30:35.764Z,79.71
2018-01-21T00:33:04.931Z,79.26
2018-01-21T00:35:35.407Z,79.43
2018-01-21T00:38:05.974Z,79.39
2018-01-21T00:40:35.083Z,79.63
2018-01-21T00:43:04.822Z,79.48
2018-01-21T00:45:33.941Z,79.22
2018-01-21T00:48:03.530Z,78.97
2018-01-21T00:50:33.219Z,78.67
2018-01-21T00:53:02.724Z,78.54
2018-01-21T00:55:31.931Z,78.81
2018-01-21T00:58:03.778Z,79.02
2018-01-21T01:00:32.914Z,79.22
2018-01-21T01:03:02.546Z,79.43
2018-01-21T01:05:31.991Z,79.59
2018-01-21T01:08:01.282Z,79.27
2018-01-21T01:10:30.666Z,79.55
2018-01-21T01:13:00.260Z,79.75
2018-01-21T01:15:29.634Z,79.84
2018-01-21T01:17:59.208Z,79.82
2018-01-21T01:20:28.607Z,79.18
2018-01-21T01:22:57.783Z,79.30
2018-01-21T01:25:26.856Z,79.10
2018-01-21T01:27:56.255Z,79.12
2018-01-21T01:30:25.362Z,79.19
2018-01-21T01:32:54.446Z,79.29
2018-01-21T01:35:24.687Z,79.12
2018-01-21T01:37:53.864Z,78.87
2018-01-21T01:40:22.986Z,78.90
2018-01-21T01:42:52.434Z,78.76
2018-01-21T01:45:21.594Z,78.54
2018-01-21T01:47:50.775Z,78.77
2018-01-21T01:50:20.256Z,78.38
2018-01-21T01:52:49.383Z,77.74
2018-01-21T01:55:18.636Z,77.55
2018-01-21T01:57:47.881Z,78.07
2018-01-21T02:00:17.093Z,77.99
2018-01-21T02:02:46.306Z,77.40
2018-01-21T02:05:15.741Z,77.21
2018-01-21T02:07:44.922Z,77.60
2018-01-21T02:10:14.114Z,77.86
2018-01-21T02:12:43.534Z,77.76
2018-01-21T02:15:12.661Z,77.66
2018-01-21T02:17:41.961Z,77.81
2018-01-21T02:20:11.417Z,78.19
2018-01-21T02:22:40.633Z,77.71
2018-01-21T02:25:09.993Z,77.79
2018-01-21T02:27:39.413Z,77.40
2018-01-21T02:30:08.591Z,76.42
2018-01-21T02:32:37.776Z,76.72
2018-01-21T02:35:07.215Z,76.39
2018-01-21T02:37:36.593Z,75.88
2018-01-21T02:40:06.685Z,75.53
2018-01-21T02:42:37.117Z,74.44
2018-01-21T02:45:06.221Z,74.38
2018-01-21T02:47:35.366Z,74.55
2018-01-21T02:50:05.339Z,74.57
2018-01-21T02:52:34.465Z,74.80
2018-01-21T02:55:03.845Z,74.98
2018-01-21T02:57:33.266Z,74.84
2018-01-21T03:00:03.524Z,74.20
2018-01-21T03:02:33.443Z,74.07
2018-01-21T03:05:03.075Z,74.78
2018-01-21T03:07:32.253Z,74.04
2018-01-21T03:10:01.992Z,74.35
2018-01-21T03:12:31.442Z,74.23
2018-01-21T03:15:00.602Z,73.76
2018-01-21T03:17:30.517Z,73.26
2018-01-21T03:20:00.159Z,73.77
2018-01-21T03:22:29.310Z,73.47
2018-01-21T03:24:58.423Z,73.88
2018-01-21T03:27:27.509Z,74.21
2018-01-21T03:29:56.665Z,73.95
2018-01-21T03:32:26.685Z,73.73
2018-01-21T03:34:55.819Z,73.74
2018-01-21T03:37:24.922Z,73.57
2018-01-21T03:39:54.334Z,73.73
2018-01-21T03:42:23.426Z,74.23
2018-01-21T03:44:52.533Z,74.18
2018-01-21T03:47:21.943Z,73.93
2018-01-21T03:49:51.045Z,74.13
2018-01-21T03:52:20.143Z,74.61
2018-01-21T03:54:49.537Z,74.80
2018-01-21T03:57:18.731Z,74.82
2018-01-21T03:59:47.890Z,74.76
2018-01-21T04:02:17.350Z,75.13
2018-01-21T04:04:46.467Z,75.08
2018-01-21T04:07:15.698Z,75.03
2018-01-21T04:09:45.093Z,75.14
2018-01-21T04:12:14.287Z,74.95
2018-01-21T04:14:43.444Z,75.15
2018-01-21T04:17:12.562Z,74.82
2018-01-21T04:19:41.680Z,74.38
2018-01-21T04:22:11.074Z,74.48
2018-01-21T04:24:40.203Z,73.90
2018-01-21T04:27:09.337Z,73.91
2018-01-21T04:29:38.482Z,73.93
2018-01-21T04:32:07.589Z,73.79
2018-01-21T04:34:37.022Z,73.81
2018-01-21T04:37:06.159Z,73.28
2018-01-21T04:39:35.282Z,73.81
2018-01-21T04:42:05.276Z,74.18
2018-01-21T04:44:34.570Z,73.88
2018-01-21T04:47:03.827Z,73.59
2018-01-21T04:49:33.622Z,73.55
2018-01-21T04:52:03.619Z,73.63
2018-01-21T04:54:32.741Z,73.35
2018-01-21T04:57:02.390Z,73.27
2018-01-21T04:59:31.515Z,73.32
2018-01-21T05:02:00.658Z,73.41
2018-01-21T05:04:30.062Z,73.30
2018-01-21T05:06:59.172Z,73.29
2018-01-21T05:09:28.309Z,73.77
2018-01-21T05:11:57.448Z,73.67
2018-01-21T05:14:26.594Z,73.57
2018-01-21T05:16:55.999Z,73.40
2018-01-21T05:19:25.149Z,73.23
2018-01-21T05:21:54.254Z,73.50
2018-01-21T05:24:23.692Z,73.26
2018-01-21T05:26:52.797Z,72.65
2018-01-21T05:29:22.645Z,72.60
2018-01-21T05:31:52.106Z,72.91
2018-01-21T05:34:21.396Z,72.89
2018-01-21T05:36:50.512Z,72.88
2018-01-21T05:39:19.915Z,72.22
2018-01-21T05:41:49.015Z,72.30
2018-01-21T05:44:18.261Z,72.47
2018-01-21T05:46:47.670Z,71.83
2018-01-21T05:49:16.842Z,72.21
2018-01-21T05:51:46.170Z,71.79
2018-01-21T05:54:15.764Z,71.47
2018-01-21T05:56:44.986Z,71.84
2018-01-21T05:59:14.109Z,71.81
2018-01-21T06:01:43.202Z,71.37
2018-01-21T06:04:12.432Z,71.43
2018-01-21T06:06:42.005Z,71.35
2018-01-21T06:09:11.136Z,71.68
2018-01-21T06:11:40.321Z,71.68
2018-01-21T06:14:09.596Z,71.93
2018-01-21T06:16:38.842Z,71.58
2018-01-21T06:19:08.374Z,71.73
2018-01-21T06:21:37.519Z,71.52
2018-01-21T06:24:06.610Z,71.56
2018-01-21T06:26:36.405Z,71.58
2018-01-21T06:29:05.667Z,71.83
2018-01-21T06:31:35.072Z,71.93
2018-01-21T06:34:05.050Z,71.79
2018-01-21T06:36:34.255Z,71.59
2018-01-21T06:39:03.823Z,71.57
2018-01-21T06:41:33.292Z,72.19
2018-01-21T06:44:03.146Z,71.22
2018-01-21T06:46:32.290Z,71.21
2018-01-21T06:49:01.981Z,71.44
2018-01-21T06:51:31.369Z,71.20
2018-01-21T06:54:00.551Z,71.50
2018-01-21T06:56:30.042Z,71.01
2018-01-21T06:58:59.152Z,70.75
2018-01-21T07:01:28.599Z,70.86
2018-01-21T07:03:58.006Z,70.44
2018-01-21T07:06:27.110Z,70.34
2018-01-21T07:08:56.263Z,70.29
2018-01-21T07:11:26.118Z,70.58
2018-01-21T07:13:55.247Z,70.21
2018-01-21T07:16:24.353Z,70.30
2018-01-21T07:18:53.868Z,70.42
2018-01-21T07:21:23.156Z,69.56
2018-01-21T07:23:52.598Z,68.85
2018-01-21T07:26:22.098Z,67.77
2018-01-21T07:28:51.236Z,67.72
2018-01-21T07:31:20.616Z,67.72
2018-01-21T07:33:50.159Z,67.01
2018-01-21T07:36:20.101Z,66.90
2018-01-21T07:38:49.267Z,67.63
2018-01-21T07:41:19.024Z,67.72
2018-01-21T07:43:48.156Z,67.75
2018-01-21T07:46:18.114Z,67.21
2018-01-21T07:48:47.234Z,67.00
2018-01-21T07:51:16.493Z,67.26
2018-01-21T07:53:45.919Z,67.47
2018-01-21T07:56:15.032Z,67.52
2018-01-21T07:58:44.169Z,66.97
2018-01-21T08:01:13.359Z,65.30
2018-01-21T08:03:42.486Z,63.16
2018-01-21T08:06:11.940Z,61.29
2018-01-21T08:08:41.067Z,59.18
2018-01-21T08:11:10.198Z,58.75
2018-01-21T08:13:40.274Z,59.67
2018-01-21T08:16:09.401Z,60.93
2018-01-21T08:18:38.553Z,62.65
2018-01-21T08:21:07.998Z,63.84
2018-01-21T08:23:37.201Z,64.29
2018-01-21T08:26:06.378Z,64.87
2018-01-21T08:28:35.774Z,65.34
2018-01-21T08:31:05.195Z,65.97
2018-01-21T08:33:36.831Z,66.05
2018-01-21T08:38:14.431Z,65.64
2018-01-21T08:41:45.912Z,65.77
2018-01-21T08:44:15.463Z,66.46
2018-01-21T08:46:44.766Z,66.21
2018-01-21T08:49:13.942Z,66.12
2018-01-21T08:51:43.211Z,66.07
2018-01-21T08:54:12.537Z,65.84
2018-01-21T08:56:42.058Z,65.74
2018-01-21T08:59:12.289Z,65.76
2018-01-21T09:01:41.425Z,65.87
2018-01-21T09:04:23.940Z,65.69
2018-01-21T09:06:53.145Z,66.07
2018-01-21T09:09:23.307Z,66.00
2018-01-21T09:11:52.441Z,65.89
2018-01-21T09:14:23.178Z,65.29
2018-01-21T09:16:53.172Z,65.97
2018-01-21T09:19:22.330Z,66.33
2018-01-21T09:21:51.453Z,65.37
2018-01-21T09:24:22.937Z,65.08
2018-01-21T09:26:52.117Z,64.41
2018-01-21T09:29:21.295Z,63.63
2018-01-21T09:31:50.818Z,64.01
2018-01-21T09:34:20.863Z,63.29
2018-01-21T09:36:50.060Z,63.47
2018-01-21T09:39:19.754Z,63.71
2018-01-21T09:41:48.888Z,63.51
2018-01-21T09:44:18.519Z,62.96
2018-01-21T09:46:47.941Z,62.74
2018-01-21T09:49:17.406Z,62.36
2018-01-21T09:51:46.633Z,60.84
2018-01-21T09:54:16.071Z,60.27
2018-01-21T09:56:45.183Z,59.30
2018-01-21T09:59:14.379Z,59.69
2018-01-21T10:01:43.825Z,59.97
2018-01-21T10:04:12.947Z,59.48
2018-01-21T10:06:42.094Z,58.51
2018-01-21T10:09:11.239Z,58.60
2018-01-21T10:11:40.409Z,59.72
2018-01-21T10:14:09.520Z,58.50
2018-01-21T10:16:40.276Z,57.84
2018-01-21T10:19:09.408Z,58.17
2018-01-21T10:21:38.554Z,57.01
2018-01-21T10:24:08.066Z,55.77
2018-01-21T10:26:40.011Z,55.36
2018-01-21T10:29:09.494Z,55.14
2018-01-21T10:31:38.980Z,55.82
2018-01-21T10:34:08.133Z,56.36
2018-01-21T10:36:37.274Z,56.41
2018-01-21T10:39:06.844Z,55.09
2018-01-21T10:41:35.976Z,55.76
2018-01-21T10:44:05.601Z,54.70
2018-01-21T10:46:35.363Z,55.46
2018-01-21T10:49:04.712Z,54.34
2018-01-21T10:51:34.011Z,54.74
2018-01-21T10:54:05.296Z,55.22
2018-01-21T10:56:34.555Z,55.15
2018-01-21T10:59:04.131Z,54.96
2018-01-21T11:01:33.462Z,53.90
2018-01-21T11:04:03.282Z,52.04
2018-01-21T11:06:32.813Z,51.19
2018-01-21T11:09:02.990Z,51.97
2018-01-21T11:11:32.220Z,52.70
2018-01-21T11:14:02.455Z,52.03
2018-01-21T11:16:31.772Z,51.67
2018-01-21T11:19:01.119Z,50.19
2018-01-21T11:21:30.247Z,50.99
2018-01-21T11:23:59.385Z,52.07
2018-01-21T11:26:28.708Z,52.44
2018-01-21T11:28:57.848Z,53.10
2018-01-21T11:31:27.019Z,53.50
2018-01-21T11:33:56.443Z,53.19
2018-01-21T11:36:25.660Z,53.64
2018-01-21T11:38:54.826Z,54.98
2018-01-21T11:41:24.084Z,55.61
2018-01-21T11:43:53.307Z,56.02
2018-01-21T11:46:22.768Z,56.59
2018-01-21T11:48:51.967Z,56.33
2018-01-21T11:51:21.083Z,55.97
2018-01-21T11:53:50.239Z,56.10
2018-01-21T11:56:19.762Z,56.71
2018-01-21T11:58:49.329Z,56.81
2018-01-21T12:01:18.599Z,57.24
2018-01-21T12:03:47.720Z,56.90
2018-01-21T12:06:18.211Z,56.83
2018-01-21T12:08:47.405Z,56.42
2018-01-21T12:11:16.699Z,55.13
2018-01-21T12:13:46.102Z,55.43
2018-01-21T12:16:15.257Z,55.79
2018-01-21T12:18:44.463Z,55.86
2018-01-21T12:21:13.945Z,56.20
2018-01-21T12:23:44.154Z,56.80
2018-01-21T12:26:13.326Z,57.12
2018-01-21T12:28:42.517Z,56.94
2018-01-21T12:31:11.650Z,56.85
2018-01-21T12:33:40.802Z,56.97
2018-01-21T12:36:10.256Z,57.00
2018-01-21T12:38:39.394Z,57.17
2018-01-21T12:41:08.600Z,56.63
2018-01-21T12:43:39.218Z,56.59
2018-01-21T12:46:08.441Z,55.69
2018-01-21T12:48:37.584Z,56.49
2018-01-21T12:51:08.244Z,56.24
2018-01-21T12:53:37.551Z,56.56
2018-01-21T12:56:06.699Z,56.51
2018-01-21T12:58:36.195Z,56.64
2018-01-21T13:01:05.362Z,56.43
2018-01-21T13:03:34.532Z,57.20
2018-01-21T13:06:04.981Z,57.74
2018-01-21T13:08:34.208Z,57.96
2018-01-21T13:11:03.978Z,57.91
2018-01-21T13:13:33.460Z,58.24
2018-01-21T13:16:04.860Z,57.85
2018-01-21T13:18:34.100Z,58.21
2018-01-21T13:21:04.796Z,58.15
2018-01-21T13:23:33.940Z,57.87
2018-01-21T13:26:04.515Z,57.73
2018-01-21T13:28:35.299Z,58.37
2018-01-21T13:31:04.710Z,57.71
2018-01-21T13:33:33.843Z,58.38
2018-01-21T13:36:04.200Z,58.56
2018-01-21T13:38:33.368Z,59.25
2018-01-21T13:41:02.814Z,59.07
2018-01-21T13:43:32.252Z,58.86
2018-01-21T13:46:02.476Z,58.49
2018-01-21T13:48:31.708Z,58.16
2018-01-21T13:51:01.498Z,58.08
2018-01-21T13:53:30.615Z,58.27
2018-01-21T13:55:59.927Z,58.61
2018-01-21T13:58:29.678Z,58.30
2018-01-21T14:00:59.266Z,58.43
2018-01-21T14:03:28.615Z,58.30
2018-01-21T14:05:58.099Z,58.24
2018-01-21T14:08:27.379Z,58.22
2018-01-21T14:10:56.525Z,57.78
2018-01-21T14:13:26.788Z,58.14
2018-01-21T14:15:55.965Z,58.54
2018-01-21T14:18:25.107Z,58.69
2018-01-21T14:20:54.591Z,58.77
2018-01-21T14:23:23.844Z,58.87
2018-01-21T14:25:53.166Z,58.85
2018-01-21T14:28:25.499Z,58.82
2018-01-21T14:30:54.833Z,58.88
2018-01-21T14:33:24.207Z,59.28
2018-01-21T14:35:53.351Z,59.18
2018-01-21T14:38:23.128Z,59.00
2018-01-21T14:40:52.623Z,59.12
2018-01-21T14:43:23.477Z,59.23
2018-01-21T14:45:52.707Z,59.35
2018-01-21T14:48:22.324Z,59.62
2018-01-21T14:50:52.132Z,59.40
2018-01-21T14:53:21.909Z,59.03
2018-01-21T14:55:51.434Z,58.57
2018-01-21T14:58:20.784Z,58.71
2018-01-21T15:00:49.982Z,59.06
2018-01-21T15:03:20.649Z,59.42
2018-01-21T15:05:49.856Z,59.32
2018-01-21T15:08:19.144Z,59.28
2018-01-21T15:10:48.860Z,58.83
2018-01-21T15:13:20.092Z,58.66
2018-01-21T15:15:51.420Z,58.49
2018-01-21T15:18:24.024Z,58.46
2018-01-21T15:20:53.638Z,58.36
2018-01-21T15:23:23.110Z,58.32
2018-01-21T15:25:52.387Z,58.41
2018-01-21T15:28:22.181Z,58.21
2018-01-21T15:30:51.531Z,58.32
2018-01-21T15:33:24.600Z,58.55
2018-01-21T15:35:54.123Z,59.13
2018-01-21T15:38:23.526Z,59.27
2018-01-21T15:40:52.908Z,59.22
2018-01-21T15:43:22.577Z,59.73
2018-01-21T15:45:51.782Z,59.56
2018-01-21T15:48:22.169Z,59.71
2018-01-21T15:50:51.803Z,59.92
2018-01-21T15:53:21.085Z,60.11
2018-01-21T15:55:50.299Z,60.04
2018-01-21T15:58:20.146Z,60.10
2018-01-21T16:00:49.418Z,60.45
2018-01-21T16:03:18.876Z,60.84
2018-01-21T16:05:48.458Z,61.10
2018-01-21T16:08:18.098Z,60.90
2018-01-21T16:10:47.986Z,60.59
2018-01-21T16:13:17.907Z,61.01
2018-01-21T16:15:47.823Z,61.12
2018-01-21T16:18:17.128Z,61.29
2018-01-21T16:20:47.391Z,61.34
2018-01-21T16:23:16.655Z,61.46
2018-01-21T16:25:46.013Z,61.39
2018-01-21T16:28:15.237Z,61.49
2018-01-21T16:30:44.434Z,61.93
2018-01-21T16:33:13.635Z,61.63
2018-01-21T16:35:42.800Z,61.51
2018-01-21T16:39:20.987Z,61.39
2018-01-21T16:41:50.667Z,61.35
2018-01-21T16:44:20.779Z,61.32
2018-01-21T16:46:50.312Z,61.08
2018-01-21T16:49:19.742Z,60.73
2018-01-21T16:51:48.898Z,61.05
2018-01-21T16:54:18.396Z,61.21
2018-01-21T16:56:47.562Z,61.02
2018-01-21T16:59:16.767Z,60.96
2018-01-21T17:01:46.278Z,61.03
2018-01-21T17:04:15.734Z,60.82
2018-01-21T17:06:46.567Z,60.74
2018-01-21T17:09:16.272Z,60.94
2018-01-21T17:11:45.425Z,61.60
2018-01-21T17:14:14.569Z,61.78
2018-01-21T17:16:44.088Z,61.96
2018-01-21T17:19:13.284Z,62.04
2018-01-21T17:21:42.930Z,61.96
2018-01-21T17:24:13.316Z,62.17
2018-01-21T17:26:42.705Z,62.27
2018-01-21T17:29:12.058Z,62.41
2018-01-21T17:31:42.793Z,62.30
2018-01-21T17:34:12.106Z,62.41
2018-01-21T17:36:42.465Z,62.47
2018-01-21T17:39:13.104Z,62.52
2018-01-21T17:41:42.404Z,62.57
2018-01-21T17:44:11.776Z,62.67
2018-01-21T17:46:40.914Z,63.15
2018-01-21T17:49:10.126Z,63.83
2018-01-21T17:51:39.857Z,63.68
2018-01-21T17:54:09.387Z,63.83
2018-01-21T17:56:38.592Z,64.13
2018-01-21T17:59:07.799Z,63.94
2018-01-21T18:01:37.088Z,64.11
2018-01-21T18:04:06.279Z,64.15
2018-01-21T18:06:35.775Z,64.01
2018-01-21T18:09:05.532Z,63.98
2018-01-21T18:11:35.908Z,64.37
2018-01-21T18:14:06.235Z,64.41
2018-01-21T18:16:36.564Z,64.29
2018-01-21T18:19:06.933Z,64.54
2018-01-21T18:21:36.414Z,65.48
2018-01-21T18:24:06.675Z,65.09
2018-01-21T18:26:36.597Z,65.00
2018-01-21T18:29:06.107Z,64.91
2018-01-21T18:31:36.483Z,64.88
2018-01-21T18:34:06.660Z,64.69
2018-01-21T18:36:36.265Z,64.21
2018-01-21T18:39:05.582Z,64.43
2018-01-21T18:41:34.827Z,64.43
2018-01-21T18:44:05.908Z,64.23
2018-01-21T18:46:36.150Z,64.32
2018-01-21T18:49:05.364Z,63.90
2018-01-21T18:51:34.860Z,63.58
2018-01-21T18:54:04.807Z,63.59
2018-01-21T18:56:35.720Z,63.36
2018-01-21T18:59:05.523Z,63.42
2018-01-21T19:01:35.710Z,63.58
2018-01-21T19:04:06.626Z,63.20
2018-01-21T19:06:36.056Z,63.31
2018-01-21T19:09:06.046Z,63.73
2018-01-21T19:11:35.517Z,63.64
2018-01-21T19:14:06.037Z,63.70
2018-01-21T19:16:35.434Z,63.59
2018-01-21T19:19:04.961Z,63.82
2018-01-21T19:21:34.634Z,63.77
2018-01-21T19:24:04.986Z,63.59
2018-01-21T19:26:34.710Z,63.47
2018-01-21T19:29:04.735Z,63.71
2018-01-21T19:31:34.135Z,63.60
2018-01-21T19:34:04.787Z,64.23
2018-01-21T19:36:34.510Z,64.33
2018-01-21T19:39:04.448Z,64.01
2018-01-21T19:41:34.227Z,63.56
2018-01-21T19:44:04.635Z,63.81
2018-01-21T19:46:34.119Z,63.74
2018-01-21T19:49:03.599Z,63.83
2018-01-21T19:51:33.592Z,63.51
2018-01-21T19:54:04.064Z,63.37
2018-01-21T19:56:33.580Z,63.72
2018-01-21T19:59:04.021Z,63.71
2018-01-21T20:01:33.248Z,63.71
2018-01-21T20:04:03.750Z,63.78
2018-01-21T20:06:35.124Z,63.86
2018-01-21T20:09:05.570Z,63.26
2018-01-21T20:11:34.952Z,63.18
2018-01-21T20:14:06.243Z,62.83
2018-01-21T20:16:35.740Z,62.55
2018-01-21T20:19:05.230Z,62.97
2018-01-21T20:21:36.086Z,62.77
2018-01-21T20:24:05.887Z,62.76
2018-01-21T20:26:35.116Z,63.13
2018-01-21T20:29:04.863Z,63.14
2018-01-21T20:31:34.193Z,63.28
2018-01-21T20:34:04.418Z,63.43
2018-01-21T20:36:33.660Z,63.36
2018-01-21T20:39:03.099Z,63.03
2018-01-21T20:41:34.300Z,63.28
2018-01-21T20:44:05.558Z,63.81
2018-01-21T20:46:34.904Z,63.57
2018-01-21T20:49:04.830Z,63.62
2018-01-21T20:51:38.216Z,63.72
2018-01-21T20:54:11.724Z,63.64
2018-01-21T20:56:41.465Z,64.27
2018-01-21T20:59:10.629Z,64.07
2018-01-21T21:01:39.863Z,63.90
2018-01-21T21:04:09.513Z,64.15
2018-01-21T21:06:38.672Z,64.10
2018-01-21T21:09:07.905Z,64.50
2018-01-21T21:11:37.543Z,64.01
2018-01-21T21:14:06.900Z,64.21
2018-01-21T21:16:36.007Z,64.16
2018-01-21T21:19:05.425Z,64.21
2018-01-21T21:21:34.881Z,64.05
2018-01-21T21:24:05.660Z,64.19
2018-01-21T21:26:35.051Z,64.07
2018-01-21T21:29:04.657Z,64.58
2018-01-21T21:31:34.143Z,64.67
2018-01-21T21:34:04.041Z,64.66
2018-01-21T21:36:33.586Z,64.37
2018-01-21T21:39:03.081Z,64.32
2018-01-21T21:41:32.497Z,64.38
2018-01-21T21:44:03.197Z,64.71
2018-01-21T21:46:33.384Z,64.47
2018-01-21T21:49:02.903Z,64.29
2018-01-21T21:51:32.504Z,64.12
2018-01-21T21:54:03.623Z,64.14
2018-01-21T21:56:33.030Z,64.23
2018-01-21T21:59:02.975Z,64.36
2018-01-21T22:01:32.249Z,64.10
2018-01-21T22:04:03.015Z,64.24
2018-01-21T22:06:33.166Z,64.06
2018-01-21T22:09:02.619Z,64.53
2018-01-21T22:11:31.953Z,63.89
2018-01-21T22:14:01.850Z,64.15
2018-01-21T22:16:31.211Z,64.14
2018-01-21T22:19:00.382Z,64.14
2018-01-21T22:21:29.519Z,63.90
2018-01-21T22:23:58.683Z,64.19
2018-01-21T22:26:29.758Z,63.94
2018-01-21T22:28:58.904Z,64.03
2018-01-21T22:31:28.461Z,64.20
2018-01-21T22:33:58.065Z,63.90
2018-01-21T22:36:27.367Z,63.85
2018-01-21T22:38:56.758Z,63.69
2018-01-21T22:41:26.397Z,63.45
2018-01-21T22:43:55.679Z,63.39
2018-01-21T22:46:24.971Z,63.24
2018-01-21T22:48:55.056Z,63.16
2018-01-21T22:51:24.935Z,63.08
2018-01-21T22:53:54.242Z,63.26
2018-01-21T22:56:23.864Z,62.94
2018-01-21T22:58:53.042Z,63.69
2018-01-21T23:01:22.263Z,63.77
2018-01-21T23:03:52.832Z,63.81
2018-01-21T23:06:22.064Z,64.55
2018-01-21T23:08:51.331Z,64.53
2018-01-21T23:11:21.761Z,64.73
2018-01-21T23:13:51.161Z,64.89
2018-01-21T23:16:21.703Z,65.83
2018-01-21T23:18:52.466Z,66.80
2018-01-21T23:21:22.837Z,67.83
2018-01-21T23:23:52.969Z,68.04
2018-01-21T23:26:22.573Z,68.96
2018-01-21T23:28:51.676Z,69.76
2018-01-21T23:31:21.015Z,70.10
2018-01-21T23:33:50.554Z,69.90
2018-01-21T23:36:20.052Z,70.90
2018-01-21T23:38:49.235Z,71.71
2018-01-21T23:41:20.381Z,71.88
2018-01-21T23:43:49.737Z,72.78
2018-01-21T23:46:19.108Z,72.66
2018-01-21T23:48:48.709Z,73.18
2018-01-21T23:51:18.103Z,73.49
2018-01-21T23:53:47.471Z,75.14
2018-01-21T23:56:16.938Z,75.43
2018-01-21T23:58:46.549Z,75.65
